Time;durP1;ratioP1;P1;durP2;ratioP2;P2;SDS_P1;SDS_P2;PMS_P1;PMS_P2;Temp;Humidity;BMP_temperature;BMP_pressure;BME280_temperature;BME280_humidity;BME280_pressure;Samples;Min_cycle;Max_cycle;Signal;HPM_P1;HPM_P2
2023/09/09 00:01:21;;;;;;;21.63;19.33;;;20.40;99.90;;;;;;5071566;28;20044;-60
2023/09/09 00:03:47;;;;;;;23.75;20.88;;;20.40;99.90;;;;;;5068199;28;20481;-60
2023/09/09 00:06:13;;;;;;;20.75;18.65;;;20.40;99.90;;;;;;5067007;28;20040;-60
2023/09/09 00:08:40;;;;;;;21.10;19.05;;;20.40;99.90;;;;;;5066257;28;20055;-60
2023/09/09 00:11:06;;;;;;;22.63;20.35;;;20.40;99.90;;;;;;5060997;28;20496;-60
2023/09/09 00:13:31;;;;;;;21.13;19.08;;;20.30;99.90;;;;;;5063188;28;20052;-60
2023/09/09 00:15:57;;;;;;;21.45;19.25;;;20.30;99.90;;;;;;5073030;28;20076;-60
2023/09/09 00:18:23;;;;;;;23.13;20.70;;;20.30;99.90;;;;;;5067237;28;20059;-60
2023/09/09 00:20:49;;;;;;;24.23;20.60;;;20.40;99.90;;;;;;5081190;28;20050;-60
2023/09/09 00:23:14;;;;;;;22.90;20.45;;;20.20;99.90;;;;;;5078779;28;20037;-59
2023/09/09 00:25:41;;;;;;;22.70;20.38;;;20.20;99.90;;;;;;5080972;28;20072;-60
2023/09/09 00:28:12;;;;;;;21.45;19.25;;;20.10;99.90;;;;;;5080736;28;20127;-59
2023/09/09 00:30:37;;;;;;;21.15;19.02;;;20.10;99.90;;;;;;5071803;28;20076;-59
2023/09/09 00:33:04;;;;;;;21.25;19.05;;;20.10;99.90;;;;;;5067209;28;20032;-59
2023/09/09 00:35:32;;;;;;;22.08;19.77;;;20.00;99.90;;;;;;5079570;28;20040;-60
2023/09/09 00:37:58;;;;;;;22.40;20.00;;;20.00;99.90;;;;;;5079679;28;20049;-60
2023/09/09 00:40:24;;;;;;;22.02;19.70;;;20.00;99.90;;;;;;5079213;28;20064;-59
2023/09/09 00:42:50;;;;;;;20.73;18.73;;;20.00;99.90;;;;;;5079303;28;20076;-60
2023/09/09 00:45:16;;;;;;;24.30;20.60;;;19.90;99.90;;;;;;5078436;28;20063;-60
2023/09/09 00:47:41;;;;;;;26.27;23.45;;;19.90;99.90;;;;;;5058832;28;20108;-59
2023/09/09 00:50:12;;;;;;;25.13;22.52;;;19.90;99.90;;;;;;5060051;28;20091;-59
2023/09/09 00:52:42;;;;;;;29.73;26.73;;;19.90;99.90;;;;;;5058207;28;20044;-60
2023/09/09 00:55:10;;;;;;;27.20;24.60;;;19.90;99.90;;;;;;5060413;28;20041;-59
2023/09/09 00:57:35;;;;;;;26.25;23.73;;;19.80;99.90;;;;;;5058973;28;20159;-60
2023/09/09 01:00:11;;;;;;;25.92;23.17;;;19.80;99.90;;;;;;5060231;28;20079;-60
2023/09/09 01:02:40;;;;;;;28.15;25.15;;;19.80;99.90;;;;;;5058876;28;20044;-60
2023/09/09 01:05:07;;;;;;;28.40;25.42;;;19.80;99.90;;;;;;5067688;28;20123;-59
2023/09/09 01:07:44;;;;;;;27.63;24.75;;;19.70;99.90;;;;;;5076916;28;20037;-60
2023/09/09 01:10:10;;;;;;;26.65;24.00;;;19.70;99.90;;;;;;5074585;28;20143;-59
2023/09/09 01:12:36;;;;;;;25.10;22.70;;;19.70;99.90;;;;;;5062854;28;20045;-60
2023/09/09 01:15:04;;;;;;;26.05;23.35;;;19.70;99.90;;;;;;5068643;28;20040;-60
2023/09/09 01:17:30;;;;;;;30.63;27.60;;;19.60;99.90;;;;;;5079811;28;20524;-60
2023/09/09 01:20:00;;;;;;;29.75;26.63;;;19.60;99.90;;;;;;5067405;28;20092;-60
2023/09/09 01:22:32;;;;;;;30.27;27.02;;;19.60;99.90;;;;;;5059301;28;20548;-60
2023/09/09 01:24:59;;;;;;;27.50;24.63;;;19.50;99.90;;;;;;5078453;28;20412;-60
2023/09/09 01:27:24;;;;;;;29.45;26.35;;;19.50;99.90;;;;;;5079295;28;20056;-59
2023/09/09 01:29:50;;;;;;;29.88;26.58;;;19.50;99.90;;;;;;5080204;28;20036;-59
2023/09/09 01:32:16;;;;;;;30.60;27.33;;;19.50;99.90;;;;;;5066096;28;20049;-60
2023/09/09 01:34:42;;;;;;;28.50;25.10;;;19.50;99.90;;;;;;5061271;28;20049;-60
2023/09/09 01:37:07;;;;;;;29.25;26.20;;;19.50;99.90;;;;;;5080130;28;20063;-60
2023/09/09 01:39:33;;;;;;;27.42;24.67;;;19.50;99.90;;;;;;5065878;28;20041;-60
2023/09/09 01:41:59;;;;;;;28.50;25.58;;;19.40;99.90;;;;;;5048887;28;20810;-60
2023/09/09 01:44:24;;;;;;;29.50;26.63;;;19.40;99.90;;;;;;5050248;28;20041;-60
2023/09/09 01:46:50;;;;;;;28.55;25.63;;;19.40;99.90;;;;;;5051695;28;20091;-61
2023/09/09 01:49:16;;;;;;;29.55;26.55;;;19.40;99.90;;;;;;5047911;28;20040;-61
2023/09/09 01:51:41;;;;;;;29.63;26.52;;;19.30;99.90;;;;;;5051676;28;20074;-61
2023/09/09 01:54:07;;;;;;;30.42;27.38;;;19.30;99.90;;;;;;5053188;28;20063;-61
2023/09/09 01:56:32;;;;;;;32.75;29.25;;;19.30;99.90;;;;;;5057538;28;20044;-60
2023/09/09 01:58:58;;;;;;;33.63;30.08;;;19.30;99.90;;;;;;5052211;28;20045;-60
2023/09/09 02:01:24;;;;;;;32.28;28.83;;;19.20;99.90;;;;;;5066929;28;20057;-59
2023/09/09 02:03:49;;;;;;;32.92;29.10;;;19.30;99.90;;;;;;5071251;28;20135;-59
2023/09/09 02:06:17;;;;;;;32.25;28.80;;;19.20;99.90;;;;;;5073769;28;20045;-60
2023/09/09 02:08:42;;;;;;;37.10;31.48;;;19.20;99.90;;;;;;5069325;28;20128;-60
2023/09/09 02:11:09;;;;;;;35.15;31.45;;;19.20;99.90;;;;;;5063225;28;20052;-60
2023/09/09 02:13:35;;;;;;;33.80;30.20;;;19.20;99.90;;;;;;5073122;28;20045;-60
2023/09/09 02:16:07;;;;;;;34.15;30.70;;;19.20;99.90;;;;;;5064780;28;20051;-60
2023/09/09 02:18:37;;;;;;;32.00;28.70;;;19.20;99.90;;;;;;5064045;28;20111;-60
2023/09/09 02:21:05;;;;;;;30.40;27.23;;;19.10;99.90;;;;;;5063279;28;20076;-60
2023/09/09 02:23:30;;;;;;;31.90;28.48;;;19.10;99.90;;;;;;5071305;28;20040;-60
2023/09/09 02:25:56;;;;;;;30.65;27.00;;;19.10;99.90;;;;;;5065197;28;20679;-60
2023/09/09 02:28:22;;;;;;;32.90;29.35;;;19.10;99.90;;;;;;5081458;28;20123;-60
2023/09/09 02:30:49;;;;;;;32.03;28.77;;;19.10;99.90;;;;;;5067619;28;20037;-60
2023/09/09 02:33:14;;;;;;;29.52;26.35;;;19.00;99.90;;;;;;5064089;28;20037;-60
2023/09/09 02:35:44;;;;;;;30.52;27.40;;;19.00;99.90;;;;;;5061672;28;20082;-60
2023/09/09 02:38:10;;;;;;;30.08;26.90;;;19.00;99.90;;;;;;5063291;28;20041;-59
2023/09/09 02:40:36;;;;;;;29.02;26.13;;;19.00;99.90;;;;;;5062038;28;20551;-59
2023/09/09 02:43:02;;;;;;;28.20;25.42;;;18.90;99.90;;;;;;5079200;28;20052;-59
2023/09/09 02:45:27;;;;;;;28.75;25.80;;;18.90;99.90;;;;;;5082426;28;20057;-60
2023/09/09 02:47:53;;;;;;;26.88;24.23;;;18.90;99.90;;;;;;5073261;28;20091;-59
2023/09/09 02:50:19;;;;;;;27.55;24.70;;;18.90;99.90;;;;;;5081553;28;20106;-60
2023/09/09 02:52:48;;;;;;;25.45;22.75;;;18.90;99.90;;;;;;5079878;28;20093;-60
2023/09/09 02:55:13;;;;;;;26.48;23.80;;;18.80;99.90;;;;;;5067743;28;20041;-59
2023/09/09 02:57:39;;;;;;;27.10;24.27;;;18.80;99.90;;;;;;5081769;28;20039;-60
2023/09/09 03:00:07;;;;;;;28.40;23.55;;;18.80;99.90;;;;;;5080811;28;20106;-61
2023/09/09 03:02:33;;;;;;;24.40;22.00;;;18.80;99.90;;;;;;5080494;28;20044;-60
2023/09/09 03:04:58;;;;;;;24.70;22.02;;;18.70;99.90;;;;;;5081275;28;20103;-60
2023/09/09 03:07:24;;;;;;;26.48;23.90;;;18.70;99.90;;;;;;5079273;28;20037;-60
2023/09/09 03:09:50;;;;;;;25.52;22.88;;;18.70;99.90;;;;;;5061122;28;20040;-60
2023/09/09 03:12:20;;;;;;;26.85;23.65;;;18.70;99.90;;;;;;5062778;28;20048;-60
2023/09/09 03:14:47;;;;;;;26.40;23.60;;;18.60;99.90;;;;;;5064456;28;20053;-60
2023/09/09 03:17:14;;;;;;;26.27;23.23;;;18.60;99.90;;;;;;5062350;28;20092;-60
2023/09/09 03:19:39;;;;;;;25.02;22.40;;;18.60;99.90;;;;;;5055795;28;20070;-59
2023/09/09 03:22:05;;;;;;;26.98;23.67;;;18.60;99.90;;;;;;5061897;28;20132;-60
2023/09/09 03:24:31;;;;;;;24.30;21.75;;;18.50;99.90;;;;;;5076200;28;20043;-60
2023/09/09 03:26:57;;;;;;;28.45;23.77;;;18.50;99.90;;;;;;5068580;28;20072;-60
2023/09/09 03:29:23;;;;;;;25.75;23.05;;;18.50;99.90;;;;;;5066064;28;20095;-60
2023/09/09 03:31:48;;;;;;;28.25;23.35;;;18.50;99.90;;;;;;5063206;28;20041;-59
2023/09/09 03:34:14;;;;;;;26.05;23.25;;;18.40;99.90;;;;;;5074698;28;20051;-59
2023/09/09 03:36:42;;;;;;;26.65;23.95;;;18.40;99.90;;;;;;5068328;28;20064;-59
2023/09/09 03:39:08;;;;;;;26.48;23.52;;;18.40;99.90;;;;;;5065315;28;20061;-59
2023/09/09 03:41:33;;;;;;;27.27;24.55;;;18.40;99.90;;;;;;5061992;28;20212;-60
2023/09/09 03:43:59;;;;;;;28.00;23.83;;;18.40;99.90;;;;;;5066414;28;20525;-60
2023/09/09 03:46:25;;;;;;;29.48;26.45;;;18.40;99.90;;;;;;5062793;28;20041;-59
2023/09/09 03:48:51;;;;;;;28.13;25.33;;;18.40;99.90;;;;;;5071269;28;20037;-59
2023/09/09 03:51:17;;;;;;;26.77;24.08;;;18.40;99.90;;;;;;5072678;28;20039;-60
2023/09/09 03:53:42;;;;;;;27.63;24.70;;;18.40;99.90;;;;;;5069159;28;20083;-59
2023/09/09 03:56:08;;;;;;;28.67;25.60;;;18.30;99.90;;;;;;5077234;28;20067;-60
2023/09/09 03:58:33;;;;;;;27.80;24.90;;;18.40;99.90;;;;;;5077962;28;20047;-59
2023/09/09 04:01:07;;;;;;;29.45;25.95;;;18.30;99.90;;;;;;5076049;28;20075;-60
2023/09/09 04:03:34;;;;;;;29.20;26.10;;;18.30;99.90;;;;;;5080006;28;20052;-60
2023/09/09 04:06:04;;;;;;;27.20;24.27;;;18.30;99.90;;;;;;5069763;28;20037;-59
2023/09/09 04:08:30;;;;;;;29.45;26.20;;;18.30;99.90;;;;;;5061215;28;20133;-60
2023/09/09 04:10:56;;;;;;;30.45;27.20;;;18.30;99.90;;;;;;5061745;28;20051;-60
2023/09/09 04:13:21;;;;;;;28.48;25.58;;;18.20;99.90;;;;;;5065928;28;20043;-60
2023/09/09 04:15:47;;;;;;;28.80;25.63;;;18.20;99.90;;;;;;5064546;28;20037;-60
2023/09/09 04:18:13;;;;;;;27.50;23.83;;;18.20;99.90;;;;;;5058533;28;20055;-60
2023/09/09 04:20:38;;;;;;;27.55;24.55;;;18.20;99.90;;;;;;5061163;28;20131;-59
2023/09/09 04:23:05;;;;;;;29.75;25.25;;;18.20;99.90;;;;;;5058785;28;20052;-60
2023/09/09 04:25:30;;;;;;;29.27;26.13;;;18.10;99.90;;;;;;5064784;28;20198;-60
2023/09/09 04:27:56;;;;;;;29.38;26.35;;;18.10;99.90;;;;;;5067345;28;20521;-60
2023/09/09 04:30:22;;;;;;;29.13;25.90;;;18.10;99.90;;;;;;5067683;28;20302;-60
2023/09/09 04:32:47;;;;;;;30.55;26.35;;;18.10;99.90;;;;;;5072115;28;20103;-60
2023/09/09 04:35:13;;;;;;;31.35;27.88;;;18.00;99.90;;;;;;5075092;28;20037;-61
2023/09/09 04:37:39;;;;;;;29.70;26.63;;;18.00;99.90;;;;;;5060443;28;20077;-60
2023/09/09 04:40:06;;;;;;;29.35;26.35;;;18.00;99.90;;;;;;5064228;28;20053;-60
2023/09/09 04:42:34;;;;;;;27.63;24.63;;;18.00;99.90;;;;;;5081027;28;20050;-59
2023/09/09 04:45:00;;;;;;;28.25;25.27;;;17.90;99.90;;;;;;5070144;28;20063;-59
2023/09/09 04:47:26;;;;;;;26.40;23.67;;;17.90;99.90;;;;;;5063582;28;20040;-59
2023/09/09 04:49:51;;;;;;;26.25;23.45;;;17.80;99.90;;;;;;5080180;28;20036;-60
2023/09/09 04:52:17;;;;;;;27.55;24.75;;;17.80;99.90;;;;;;5060765;28;20114;-60
2023/09/09 04:54:43;;;;;;;30.45;27.17;;;17.80;99.90;;;;;;5080126;28;20092;-58
2023/09/09 04:57:09;;;;;;;30.77;26.45;;;17.90;99.90;;;;;;5076792;28;20040;-59
2023/09/09 04:59:34;;;;;;;29.42;26.13;;;17.80;99.90;;;;;;5079417;28;20041;-60
2023/09/09 05:02:00;;;;;;;35.13;27.73;;;17.80;99.90;;;;;;5081067;28;20638;-60
2023/09/09 05:04:26;;;;;;;30.02;26.90;;;17.80;99.90;;;;;;5069460;28;20121;-59
2023/09/09 05:06:53;;;;;;;31.73;27.00;;;17.80;99.90;;;;;;5061135;28;20076;-60
2023/09/09 05:09:20;;;;;;;31.92;27.38;;;17.80;99.90;;;;;;5060411;28;20040;-59
2023/09/09 05:11:45;;;;;;;32.17;28.83;;;17.80;99.90;;;;;;5079817;28;20078;-59
2023/09/09 05:14:11;;;;;;;33.85;28.20;;;17.80;99.90;;;;;;5079367;28;20044;-60
2023/09/09 05:16:37;;;;;;;28.65;25.48;;;17.70;99.90;;;;;;5067418;28;20052;-59
2023/09/09 05:19:03;;;;;;;31.45;26.75;;;17.70;99.90;;;;;;5065144;28;20096;-60
2023/09/09 05:21:29;;;;;;;31.10;27.27;;;17.70;99.90;;;;;;5064832;28;20040;-60
2023/09/09 05:23:54;;;;;;;31.10;27.90;;;17.70;99.90;;;;;;5070862;28;20037;-60
2023/09/09 05:26:20;;;;;;;33.92;28.83;;;17.70;99.90;;;;;;5068086;28;20048;-59
2023/09/09 05:28:46;;;;;;;34.90;28.27;;;17.70;99.90;;;;;;5076170;28;20074;-59
2023/09/09 05:31:16;;;;;;;29.92;26.83;;;17.70;99.90;;;;;;5063580;28;20085;-60
2023/09/09 05:33:42;;;;;;;28.33;25.42;;;17.70;99.90;;;;;;5064820;28;20133;-61
2023/09/09 05:36:07;;;;;;;28.17;25.27;;;17.70;99.90;;;;;;5074682;28;20032;-59
2023/09/09 05:38:35;;;;;;;27.60;24.70;;;17.70;99.90;;;;;;5074714;28;20056;-60
2023/09/09 05:41:00;;;;;;;25.95;23.20;;;17.60;99.90;;;;;;5059652;28;20394;-60
2023/09/09 05:43:26;;;;;;;26.27;23.38;;;17.60;99.90;;;;;;5065077;28;20052;-60
2023/09/09 05:45:55;;;;;;;28.67;25.73;;;17.60;99.90;;;;;;5063179;28;20045;-60
2023/09/09 05:48:21;;;;;;;25.08;22.15;;;17.60;99.90;;;;;;5065051;28;20059;-61
2023/09/09 05:50:46;;;;;;;27.02;24.33;;;17.60;99.90;;;;;;5064934;28;20045;-60
2023/09/09 05:53:12;;;;;;;25.75;22.80;;;17.60;99.90;;;;;;5051906;28;20049;-62
2023/09/09 05:55:38;;;;;;;27.58;22.90;;;17.60;99.90;;;;;;5060848;28;20052;-62
2023/09/09 05:58:04;;;;;;;26.67;23.98;;;17.70;99.90;;;;;;5065135;28;20044;-62
2023/09/09 06:00:29;;;;;;;26.70;23.80;;;17.70;99.90;;;;;;5059341;28;20065;-61
2023/09/09 06:02:55;;;;;;;26.58;23.55;;;17.70;99.90;;;;;;5074379;28;20037;-61
2023/09/09 06:05:21;;;;;;;23.98;21.60;;;17.70;99.90;;;;;;5057761;28;20037;-61
2023/09/09 06:07:47;;;;;;;25.13;22.42;;;17.70;99.90;;;;;;5061431;28;20048;-60
2023/09/09 06:10:13;;;;;;;25.58;22.95;;;17.80;99.90;;;;;;5064359;28;20072;-60
2023/09/09 06:12:38;;;;;;;25.30;22.60;;;17.80;99.90;;;;;;5059050;28;20041;-61
2023/09/09 06:15:04;;;;;;;26.45;23.65;;;17.80;99.90;;;;;;5062948;28;20056;-61
2023/09/09 06:17:30;;;;;;;24.38;21.77;;;17.90;99.90;;;;;;5065479;28;20429;-61
2023/09/09 06:19:56;;;;;;;26.63;24.02;;;17.90;99.90;;;;;;5069986;28;20076;-62
2023/09/09 06:22:21;;;;;;;25.20;22.60;;;17.90;99.90;;;;;;5074823;28;20669;-62
2023/09/09 06:24:47;;;;;;;27.75;24.88;;;18.00;99.90;;;;;;5069361;28;20051;-62
2023/09/09 06:27:13;;;;;;;29.10;26.08;;;18.00;99.90;;;;;;5066802;28;20510;-62
2023/09/09 06:29:38;;;;;;;33.75;30.02;;;18.00;99.90;;;;;;5069125;28;20045;-61
2023/09/09 06:32:06;;;;;;;37.47;33.45;;;18.10;99.90;;;;;;5077073;28;20108;-61
2023/09/09 06:34:32;;;;;;;43.67;35.80;;;18.20;99.90;;;;;;5077369;28;20048;-61
2023/09/09 06:36:57;;;;;;;40.50;35.95;;;18.20;99.90;;;;;;5069521;28;20029;-61
2023/09/09 06:39:23;;;;;;;44.30;37.97;;;18.30;99.90;;;;;;5067050;28;20122;-61
2023/09/09 06:41:50;;;;;;;44.72;35.92;;;18.40;99.90;;;;;;5071003;28;20052;-62
2023/09/09 06:44:15;;;;;;;42.03;35.72;;;18.40;99.90;;;;;;5064519;28;20045;-62
2023/09/09 06:46:41;;;;;;;47.83;36.67;;;18.40;99.90;;;;;;5069853;28;20043;-62
2023/09/09 06:49:07;;;;;;;41.90;37.03;;;18.50;99.90;;;;;;5069591;28;20483;-61
2023/09/09 06:51:32;;;;;;;45.60;37.65;;;18.60;99.90;;;;;;5082143;28;20095;-61
2023/09/09 06:53:58;;;;;;;44.10;38.80;;;18.60;99.90;;;;;;5079009;28;20051;-62
2023/09/09 06:56:24;;;;;;;48.20;40.53;;;18.60;99.90;;;;;;5077033;28;20037;-62
2023/09/09 06:58:49;;;;;;;50.42;44.47;;;18.70;99.90;;;;;;5068804;28;20040;-62
2023/09/09 07:01:15;;;;;;;48.15;42.95;;;18.80;99.90;;;;;;5076758;28;20156;-63
2023/09/09 07:03:41;;;;;;;46.03;41.15;;;18.90;99.90;;;;;;5070999;28;20033;-61
2023/09/09 07:06:07;;;;;;;54.95;41.88;;;19.10;99.90;;;;;;5070402;28;20040;-61
2023/09/09 07:08:32;;;;;;;49.05;40.38;;;19.30;99.90;;;;;;5080382;28;20072;-61
2023/09/09 07:10:58;;;;;;;45.90;39.80;;;19.50;99.90;;;;;;5067082;28;20068;-61
2023/09/09 07:13:24;;;;;;;47.95;40.72;;;19.80;99.90;;;;;;5075770;28;20441;-61
2023/09/09 07:15:53;;;;;;;47.28;41.08;;;20.00;99.90;;;;;;5068238;28;20040;-61
2023/09/09 07:18:20;;;;;;;46.05;40.25;;;20.20;99.90;;;;;;5070024;28;20049;-62
2023/09/09 07:20:46;;;;;;;44.08;39.35;;;20.30;99.90;;;;;;5070822;28;20068;-61
2023/09/09 07:23:14;;;;;;;46.63;40.13;;;20.40;99.90;;;;;;5066095;28;20084;-61
2023/09/09 07:25:44;;;;;;;44.28;39.00;;;20.50;99.90;;;;;;5066912;28;20049;-62
2023/09/09 07:28:11;;;;;;;43.85;38.65;;;20.60;99.90;;;;;;5064227;28;20048;-61
2023/09/09 07:30:37;;;;;;;45.65;38.95;;;20.70;99.90;;;;;;5075399;28;20254;-63
2023/09/09 07:33:03;;;;;;;43.40;38.30;;;20.90;99.90;;;;;;5067270;28;20052;-62
2023/09/09 07:35:29;;;;;;;45.33;37.97;;;21.00;99.90;;;;;;5058826;28;20141;-61
2023/09/09 07:37:55;;;;;;;46.47;39.03;;;21.10;99.90;;;;;;5069353;28;20041;-62
2023/09/09 07:40:20;;;;;;;44.72;38.53;;;21.20;99.90;;;;;;5074003;28;20072;-62
2023/09/09 07:42:46;;;;;;;44.47;38.55;;;21.40;99.90;;;;;;5080458;28;20079;-61
2023/09/09 07:45:12;;;;;;;48.45;39.50;;;21.40;99.90;;;;;;5080123;28;20067;-62
2023/09/09 07:47:38;;;;;;;48.15;38.58;;;21.50;99.90;;;;;;5068096;28;20071;-62
2023/09/09 07:50:04;;;;;;;43.88;38.83;;;21.60;99.90;;;;;;5079429;28;20128;-60
2023/09/09 07:52:30;;;;;;;47.17;38.97;;;21.60;99.90;;;;;;5073049;28;20047;-60
2023/09/09 07:54:57;;;;;;;46.83;39.65;;;21.50;99.90;;;;;;5058917;28;20068;-62
2023/09/09 07:57:23;;;;;;;47.72;39.60;;;21.40;99.90;;;;;;5081587;28;20051;-63
2023/09/09 07:59:49;;;;;;;50.75;40.65;;;21.40;99.90;;;;;;5078659;28;20040;-62
2023/09/09 08:02:15;;;;;;;48.15;40.88;;;21.40;99.90;;;;;;5078342;28;20048;-62
2023/09/09 08:04:40;;;;;;;47.15;41.33;;;21.40;99.90;;;;;;5076679;28;20039;-61
2023/09/09 08:07:06;;;;;;;51.63;42.28;;;21.40;99.90;;;;;;5073874;28;20095;-62
2023/09/09 08:09:32;;;;;;;49.45;41.80;;;21.40;99.90;;;;;;5073955;28;20045;-62
2023/09/09 08:11:58;;;;;;;48.35;41.67;;;21.40;99.90;;;;;;5072094;28;20041;-63
2023/09/09 08:14:24;;;;;;;54.03;40.97;;;21.40;99.90;;;;;;5077563;28;20048;-63
2023/09/09 08:16:50;;;;;;;52.35;43.40;;;21.40;99.90;;;;;;5071181;28;20049;-62
2023/09/09 08:19:16;;;;;;;49.78;42.25;;;21.50;99.90;;;;;;5077956;28;20032;-62
2023/09/09 08:21:42;;;;;;;53.05;41.97;;;21.50;99.90;;;;;;5070221;28;20496;-62
2023/09/09 08:24:08;;;;;;;49.08;42.78;;;21.50;99.90;;;;;;5066377;28;20047;-63
2023/09/09 08:26:33;;;;;;;50.60;43.83;;;21.50;99.90;;;;;;5065297;28;20454;-62
2023/09/09 08:28:59;;;;;;;52.08;44.25;;;21.50;99.90;;;;;;5069351;28;20343;-62
2023/09/09 08:31:25;;;;;;;52.83;44.50;;;21.50;99.90;;;;;;5076106;28;20066;-62
2023/09/09 08:33:51;;;;;;;51.65;43.47;;;21.60;99.90;;;;;;5065936;28;20048;-62
2023/09/09 08:36:17;;;;;;;54.25;44.40;;;21.50;99.90;;;;;;5066730;28;20055;-62
2023/09/09 08:38:42;;;;;;;51.60;43.95;;;21.50;99.90;;;;;;5077598;28;20108;-62
2023/09/09 08:41:22;;;;;;;51.40;44.33;;;21.60;99.90;;;;;;5071683;28;20443;-63
2023/09/09 08:44:16;;;;;;;49.22;43.58;;;21.60;99.90;;;;;;5061319;28;20666;-62
2023/09/09 08:46:41;;;;;;;49.92;43.45;;;21.70;99.90;;;;;;5067052;28;20044;-62
2023/09/09 08:49:12;;;;;;;52.15;44.65;;;21.70;99.90;;;;;;5066151;28;20123;-62
2023/09/09 08:51:46;;;;;;;49.60;44.25;;;21.70;99.90;;;;;;5068012;28;20093;-62
2023/09/09 08:54:13;;;;;;;48.72;42.08;;;21.70;99.90;;;;;;5070654;28;20111;-62
2023/09/09 08:56:39;;;;;;;49.58;43.38;;;21.70;99.90;;;;;;5073209;28;20546;-62
2023/09/09 08:59:06;;;;;;;50.85;43.88;;;21.80;99.90;;;;;;5066088;28;20064;-61
2023/09/09 09:01:32;;;;;;;50.08;44.63;;;21.80;99.90;;;;;;5068808;28;20077;-61
2023/09/09 09:04:00;;;;;;;50.00;44.50;;;21.90;99.90;;;;;;5066464;28;20094;-63
2023/09/09 09:06:27;;;;;;;48.35;42.42;;;22.00;99.90;;;;;;5076671;28;20564;-63
2023/09/09 09:08:52;;;;;;;49.92;43.70;;;22.00;99.90;;;;;;5070056;28;20847;-62
2023/09/09 09:11:20;;;;;;;50.92;45.42;;;22.10;99.90;;;;;;5070446;28;20078;-61
2023/09/09 09:13:47;;;;;;;49.25;42.20;;;22.10;99.90;;;;;;5070305;28;20037;-61
2023/09/09 09:16:13;;;;;;;44.72;38.88;;;22.20;99.90;;;;;;5070069;28;20114;-62
2023/09/09 09:18:39;;;;;;;47.83;42.78;;;22.30;99.90;;;;;;5075440;28;20044;-62
2023/09/09 09:21:10;;;;;;;48.95;41.83;;;22.30;99.90;;;;;;5072383;28;20559;-63
2023/09/09 09:23:43;;;;;;;49.80;43.17;;;22.40;99.90;;;;;;5061336;28;20098;-63
2023/09/09 09:26:29;;;;;;;49.72;44.33;;;22.50;99.90;;;;;;5064421;28;20084;-59
2023/09/09 09:28:55;;;;;;;52.75;45.45;;;22.60;99.90;;;;;;5070925;28;20048;-62
2023/09/09 09:31:22;;;;;;;50.65;43.00;;;22.60;99.90;;;;;;5059386;28;20650;-62
2023/09/09 09:33:50;;;;;;;51.47;44.47;;;22.70;99.90;;;;;;5062216;28;20049;-62
2023/09/09 09:36:20;;;;;;;57.80;46.20;;;22.80;99.90;;;;;;5068338;28;20055;-63
2023/09/09 09:38:47;;;;;;;49.20;43.97;;;22.90;99.90;;;;;;5064823;28;20048;-63
2023/09/09 09:41:16;;;;;;;50.17;43.78;;;23.00;99.90;;;;;;5074289;28;20575;-63
2023/09/09 09:43:41;;;;;;;58.53;47.22;;;23.10;99.90;;;;;;5071289;28;20059;-64
2023/09/09 09:46:14;;;;;;;58.40;48.78;;;23.10;99.90;;;;;;5065407;28;20080;-63
2023/09/09 09:48:40;;;;;;;61.88;51.15;;;23.10;99.90;;;;;;5063706;28;20109;-62
2023/09/09 09:51:06;;;;;;;60.20;48.97;;;23.10;99.90;;;;;;5064541;28;20033;-63
2023/09/09 09:53:35;;;;;;;71.32;56.45;;;23.10;99.90;;;;;;5064289;28;20076;-63
2023/09/09 09:56:02;;;;;;;68.78;56.80;;;23.20;99.90;;;;;;5064553;28;20041;-62
2023/09/09 09:58:33;;;;;;;68.50;54.03;;;23.20;99.90;;;;;;5060510;28;20095;-63
2023/09/09 10:01:00;;;;;;;56.60;45.80;;;23.20;99.90;;;;;;5060819;28;20498;-62
2023/09/09 10:03:32;;;;;;;54.33;45.45;;;23.20;99.90;;;;;;5065382;28;20071;-62
2023/09/09 10:05:58;;;;;;;52.28;43.00;;;23.30;99.90;;;;;;5055307;28;20103;-62
2023/09/09 10:08:35;;;;;;;51.42;44.17;;;23.40;99.90;;;;;;5064892;28;20389;-62
2023/09/09 10:11:13;;;;;;;53.72;43.85;;;23.40;99.90;;;;;;5068135;28;20538;-63
2023/09/09 10:14:04;;;;;;;51.22;44.65;;;23.40;99.90;;;;;;5059337;28;20059;-62
2023/09/09 10:16:32;;;;;;;61.58;49.88;;;23.50;99.90;;;;;;5069107;28;20048;-62
2023/09/09 10:18:59;;;;;;;57.72;45.10;;;23.50;99.90;;;;;;5068373;28;20590;-63
2023/09/09 10:21:27;;;;;;;60.22;47.22;;;23.60;99.90;;;;;;5071111;28;20067;-63
2023/09/09 10:23:54;;;;;;;56.60;43.78;;;23.60;99.90;;;;;;5065251;28;20053;-62
2023/09/09 10:26:21;;;;;;;60.05;45.78;;;23.70;99.90;;;;;;5060573;28;20078;-61
2023/09/09 10:28:49;;;;;;;64.45;46.80;;;23.70;99.90;;;;;;5070458;28;20075;-62
2023/09/09 10:31:15;;;;;;;51.72;41.78;;;23.70;99.90;;;;;;5068495;28;20041;-63
2023/09/09 10:33:47;;;;;;;58.50;43.80;;;23.80;99.90;;;;;;5062058;28;20048;-63
2023/09/09 10:36:15;;;;;;;59.50;44.67;;;23.80;99.90;;;;;;5074485;28;20043;-63
2023/09/09 10:38:41;;;;;;;40.70;31.10;;;23.90;99.90;;;;;;5066999;28;20467;-63
2023/09/09 10:41:08;;;;;;;41.47;33.42;;;23.90;99.90;;;;;;5050973;28;20099;-63
2023/09/09 10:43:34;;;;;;;40.38;31.77;;;23.90;99.90;;;;;;5061171;28;20045;-63
2023/09/09 10:46:00;;;;;;;33.13;26.27;;;24.00;99.90;;;;;;5068183;28;20117;-62
2023/09/09 10:48:27;;;;;;;32.78;27.15;;;24.00;99.90;;;;;;5067404;28;20040;-62
2023/09/09 10:50:53;;;;;;;29.65;22.85;;;24.00;99.90;;;;;;5070282;28;20041;-62
2023/09/09 10:53:26;;;;;;;25.33;19.15;;;24.10;99.90;;;;;;5069796;28;21770;-61
2023/09/09 10:55:58;;;;;;;21.05;15.75;;;24.20;99.90;;;;;;5062624;28;20040;-61
2023/09/09 10:58:38;;;;;;;17.67;14.45;;;24.20;99.90;;;;;;5067270;28;20043;-61
2023/09/09 11:01:07;;;;;;;14.95;13.40;;;24.20;99.90;;;;;;5073689;28;20125;-62
2023/09/09 11:03:39;;;;;;;19.05;13.52;;;24.20;99.90;;;;;;5075542;28;20488;-62
2023/09/09 11:06:10;;;;;;;16.50;13.57;;;24.30;99.90;;;;;;5059490;28;20409;-62
2023/09/09 11:08:41;;;;;;;18.15;13.68;;;24.30;99.90;;;;;;5075181;28;20037;-61
2023/09/09 11:11:09;;;;;;;17.33;12.90;;;24.30;99.90;;;;;;5072687;28;21292;-61
2023/09/09 11:13:50;;;;;;;14.25;12.65;;;24.40;99.90;;;;;;5073530;28;20041;-61
2023/09/09 11:16:37;;;;;;;16.35;9.02;;;24.40;99.90;;;;;;5062786;28;20072;-61
2023/09/09 11:19:07;;;;;;;11.07;9.75;;;24.50;99.90;;;;;;5067138;28;20050;-61
2023/09/09 11:21:55;;;;;;;14.02;10.57;;;24.50;99.90;;;;;;5063338;28;20071;-61
2023/09/09 11:24:20;;;;;;;17.90;13.32;;;24.60;99.90;;;;;;5074832;28;20064;-61
2023/09/09 11:26:48;;;;;;;16.23;12.70;;;24.60;99.90;;;;;;5067889;28;20048;-61
2023/09/09 11:29:15;;;;;;;13.70;10.25;;;24.70;99.90;;;;;;5061553;28;20048;-61
2023/09/09 11:31:41;;;;;;;17.95;12.25;;;24.70;99.90;;;;;;5071637;28;20048;-62
2023/09/09 11:34:07;;;;;;;12.55;10.57;;;24.80;99.90;;;;;;5072933;28;20095;-61
2023/09/09 11:36:33;;;;;;;17.00;11.75;;;24.80;99.90;;;;;;5077091;28;20052;-61
2023/09/09 11:39:00;;;;;;;12.32;11.07;;;24.80;99.90;;;;;;5074033;28;20049;-62
2023/09/09 11:41:28;;;;;;;11.57;10.38;;;24.80;99.90;;;;;;5068445;28;20112;-61
2023/09/09 11:43:57;;;;;;;14.32;11.63;;;24.80;99.90;;;;;;5071121;28;20065;-61
2023/09/09 11:46:28;;;;;;;13.02;10.65;;;24.80;99.90;;;;;;5062673;28;20048;-61
2023/09/09 11:48:54;;;;;;;15.77;11.93;;;24.90;99.90;;;;;;5063143;28;20075;-62
2023/09/09 11:51:20;;;;;;;18.35;12.27;;;24.90;99.90;;;;;;5051917;28;20041;-61
2023/09/09 11:53:47;;;;;;;15.18;12.18;;;25.00;99.90;;;;;;5062465;28;20108;-62
2023/09/09 11:56:14;;;;;;;14.95;11.90;;;25.00;99.90;;;;;;5058310;28;20079;-62
2023/09/09 11:58:41;;;;;;;18.02;13.88;;;25.00;99.90;;;;;;5060057;28;20041;-62
2023/09/09 12:01:08;;;;;;;14.93;12.45;;;25.10;99.90;;;;;;5066758;28;20134;-62
2023/09/09 12:03:34;;;;;;;16.83;12.25;;;25.10;99.90;;;;;;5067602;28;20441;-61
2023/09/09 12:06:02;;;;;;;15.25;13.63;;;25.20;99.90;;;;;;5067557;28;20041;-61
2023/09/09 12:08:28;;;;;;;16.38;14.10;;;25.20;99.90;;;;;;5060117;28;20100;-61
2023/09/09 12:10:56;;;;;;;15.80;13.77;;;25.30;99.90;;;;;;5071586;28;20043;-61
2023/09/09 12:13:22;;;;;;;13.80;11.82;;;25.30;99.90;;;;;;5060766;28;20101;-63
2023/09/09 12:15:48;;;;;;;13.30;11.43;;;25.30;99.90;;;;;;5077393;28;20036;-60
2023/09/09 12:18:14;;;;;;;17.83;13.82;;;25.30;99.90;;;;;;5067233;28;20127;-62
2023/09/09 12:21:03;;;;;;;14.80;13.07;;;25.40;99.90;;;;;;5068318;28;20040;-63
2023/09/09 12:23:34;;;;;;;14.70;13.15;;;25.40;99.90;;;;;;5062530;28;20041;-62
2023/09/09 12:26:13;;;;;;;17.42;12.57;;;25.40;99.90;;;;;;5058442;28;20029;-63
2023/09/09 12:28:43;;;;;;;15.05;11.80;;;25.50;99.90;;;;;;5068201;28;20100;-61